createdAt,value
2022-10-22T00:01:20.033Z,11.90
2022-10-22T00:04:05.117Z,11.23
2022-10-22T00:06:49.825Z,11.68
2022-10-22T00:09:34.778Z,14.10
2022-10-22T00:12:20.115Z,11.27
2022-10-22T00:15:06.372Z,12.55
2022-10-22T00:17:51.391Z,12.85
2022-10-22T00:20:36.339Z,9.70
2022-10-22T00:23:21.286Z,12.18
2022-10-22T00:26:06.307Z,11.75
2022-10-22T00:28:51.367Z,11.98
2022-10-22T00:31:36.232Z,10.45
2022-10-22T00:34:22.001Z,11.88
2022-10-22T00:37:06.994Z,9.88
2022-10-22T00:39:51.827Z,10.10
2022-10-22T00:42:36.785Z,9.55
2022-10-22T00:45:23.404Z,12.18
2022-10-22T00:48:11.344Z,11.35
2022-10-22T00:51:07.799Z,9.25
2022-10-22T00:53:56.686Z,10.20
2022-10-22T00:56:41.692Z,11.02
2022-10-22T00:59:27.912Z,11.55
2022-10-22T01:02:13.102Z,9.75
2022-10-22T01:04:57.876Z,9.85
2022-10-22T01:07:47.409Z,11.93
2022-10-22T01:10:47.219Z,10.60
2022-10-22T01:13:58.090Z,11.85
2022-10-22T01:23:39.532Z,9.48
2022-10-22T01:27:02.776Z,10.73
2022-10-22T01:29:52.964Z,9.80
2022-10-22T01:32:49.027Z,10.55
2022-10-22T01:35:38.367Z,12.57
2022-10-22T01:38:25.540Z,11.05
2022-10-22T01:41:10.692Z,11.60
2022-10-22T01:43:55.685Z,10.88
2022-10-22T01:46:40.633Z,10.23
2022-10-22T01:49:48.521Z,12.63
2022-10-22T01:52:41.673Z,12.05
2022-10-22T01:55:53.331Z,12.52
2022-10-22T01:58:44.131Z,11.13
2022-10-22T02:01:35.825Z,12.20
2022-10-22T02:04:40.856Z,10.50
2022-10-22T02:07:31.205Z,15.50
2022-10-22T02:10:18.336Z,10.95
2022-10-22T02:13:07.641Z,12.07
2022-10-22T02:15:54.013Z,13.18
2022-10-22T02:18:43.193Z,11.45
2022-10-22T02:21:28.521Z,12.27
2022-10-22T02:24:13.489Z,12.13
2022-10-22T02:27:12.071Z,11.07
2022-10-22T02:30:11.016Z,11.38
2022-10-22T02:32:56.222Z,9.35
2022-10-22T02:35:42.172Z,12.63
2022-10-22T02:38:28.800Z,10.45
2022-10-22T02:41:16.232Z,13.30
2022-10-22T02:44:02.495Z,12.35
2022-10-22T02:46:47.933Z,9.98
2022-10-22T02:49:32.789Z,11.35
2022-10-22T02:52:17.523Z,10.48
2022-10-22T02:55:02.955Z,12.52
2022-10-22T02:57:47.966Z,10.75
2022-10-22T03:00:32.977Z,13.13
2022-10-22T03:03:17.927Z,10.48
2022-10-22T03:06:02.734Z,11.43
2022-10-22T03:08:47.586Z,12.90
2022-10-22T03:11:32.563Z,11.95
2022-10-22T03:14:17.581Z,12.63
2022-10-22T03:17:02.561Z,11.98
2022-10-22T03:19:47.487Z,11.52
2022-10-22T03:22:34.788Z,13.50
2022-10-22T03:25:23.416Z,11.27
2022-10-22T03:28:13.286Z,12.52
2022-10-22T03:30:58.132Z,9.35
2022-10-22T03:33:43.166Z,10.73
2022-10-22T03:36:28.291Z,10.63
2022-10-22T03:39:15.645Z,12.52
2022-10-22T03:42:01.539Z,10.77
2022-10-22T03:44:46.401Z,10.25
2022-10-22T03:47:31.061Z,10.90
2022-10-22T03:50:16.761Z,11.57
2022-10-22T03:53:01.991Z,10.65
2022-10-22T03:55:46.898Z,10.88
2022-10-22T03:58:31.785Z,11.82
2022-10-22T04:01:16.886Z,11.27
2022-10-22T04:04:01.792Z,12.45
2022-10-22T04:06:46.763Z,10.50
2022-10-22T04:09:35.201Z,14.13
2022-10-22T04:12:19.755Z,10.43
2022-10-22T04:15:05.444Z,12.35
2022-10-22T04:17:50.162Z,11.80
2022-10-22T04:20:34.989Z,11.35
2022-10-22T04:23:20.312Z,9.75
2022-10-22T04:26:07.482Z,13.13
2022-10-22T04:28:52.863Z,11.10
2022-10-22T04:31:37.406Z,11.55
2022-10-22T04:34:22.428Z,12.20
2022-10-22T04:37:07.357Z,12.93
2022-10-22T04:39:52.326Z,12.93
2022-10-22T04:42:37.334Z,11.80
2022-10-22T04:45:22.272Z,11.68
2022-10-22T04:48:07.315Z,12.25
2022-10-22T04:50:52.178Z,14.23
2022-10-22T04:53:37.607Z,12.10
2022-10-22T04:56:25.197Z,14.30
2022-10-22T04:59:12.887Z,12.00
2022-10-22T05:01:57.787Z,10.25
2022-10-22T05:04:44.171Z,14.25
2022-10-22T05:07:29.295Z,11.35
2022-10-22T05:10:14.283Z,10.48
2022-10-22T05:12:58.975Z,13.75
2022-10-22T05:15:43.975Z,12.35
2022-10-22T05:18:28.853Z,12.38
2022-10-22T05:21:16.823Z,13.05
2022-10-22T05:24:01.660Z,10.48
2022-10-22T05:26:52.722Z,10.77
2022-10-22T05:29:37.678Z,12.07
2022-10-22T05:32:22.710Z,12.48
2022-10-22T05:35:07.936Z,12.88
2022-10-22T05:37:52.745Z,11.63
2022-10-22T05:40:37.631Z,13.57
2022-10-22T05:43:22.688Z,13.18
2022-10-22T05:46:12.803Z,15.70
2022-10-22T05:49:00.321Z,19.80
2022-10-22T05:51:44.841Z,20.02
2022-10-22T05:54:29.886Z,17.50
2022-10-22T05:57:14.828Z,21.05
2022-10-22T05:59:59.821Z,15.02
2022-10-22T06:02:49.516Z,14.40
2022-10-22T06:05:36.146Z,16.00
2022-10-22T06:08:20.989Z,24.25
2022-10-22T06:11:05.820Z,16.58
2022-10-22T06:13:51.115Z,24.33
2022-10-22T06:16:35.870Z,18.35
2022-10-22T06:19:22.478Z,14.20
2022-10-22T06:22:07.661Z,13.15
2022-10-22T06:24:52.459Z,15.07
2022-10-22T06:27:37.760Z,16.13
2022-10-22T06:30:22.437Z,13.90
2022-10-22T06:33:07.294Z,17.80
2022-10-22T06:35:52.993Z,12.43
2022-10-22T06:38:38.613Z,11.70
2022-10-22T06:41:27.058Z,11.02
2022-10-22T06:44:19.213Z,14.88
2022-10-22T06:47:04.449Z,11.23
2022-10-22T06:49:49.994Z,13.88
2022-10-22T06:52:35.164Z,19.13
2022-10-22T06:55:20.037Z,43.22
2022-10-22T06:58:06.339Z,79.32
2022-10-22T07:01:20.182Z,58.50
2022-10-22T07:04:06.213Z,27.60
2022-10-22T07:06:50.922Z,22.10
2022-10-22T07:09:35.962Z,18.45
2022-10-22T07:12:21.231Z,12.80
2022-10-22T07:15:06.319Z,12.80
2022-10-22T07:17:51.256Z,13.48
2022-10-22T07:20:36.122Z,21.73
2022-10-22T07:23:21.246Z,46.50
2022-10-22T07:26:07.930Z,27.05
2022-10-22T07:28:52.593Z,21.90
2022-10-22T07:31:37.700Z,18.02
2022-10-22T07:34:22.543Z,14.38
2022-10-22T07:37:07.651Z,11.98
2022-10-22T07:39:52.677Z,11.95
2022-10-22T07:42:37.609Z,13.90
2022-10-22T07:45:22.666Z,12.93
2022-10-22T07:48:07.692Z,13.02
2022-10-22T07:50:52.723Z,17.90
2022-10-22T07:53:37.910Z,23.25
2022-10-22T07:56:22.790Z,18.92
2022-10-22T07:59:07.656Z,17.38
2022-10-22T08:01:52.775Z,14.35
2022-10-22T08:04:37.975Z,17.60
2022-10-22T08:07:23.161Z,11.48
2022-10-22T08:10:09.947Z,10.75
2022-10-22T08:12:54.640Z,12.65
2022-10-22T08:15:39.779Z,11.65
2022-10-22T08:18:24.964Z,12.23
2022-10-22T08:21:11.882Z,11.25
2022-10-22T08:23:56.692Z,13.32
2022-10-22T08:26:42.039Z,12.48
2022-10-22T08:29:27.287Z,11.10
2022-10-22T08:32:11.986Z,13.95
2022-10-22T08:35:01.461Z,11.75
2022-10-22T08:37:46.320Z,12.63
2022-10-22T08:40:39.551Z,12.65
2022-10-22T08:43:38.474Z,12.38
2022-10-22T08:46:41.666Z,14.18
2022-10-22T08:49:32.554Z,15.68
2022-10-22T08:52:19.434Z,16.17
2022-10-22T08:55:05.386Z,15.10
2022-10-22T08:58:21.365Z,12.95
2022-10-22T09:01:12.936Z,17.15
2022-10-22T09:04:14.360Z,18.08
2022-10-22T09:06:59.855Z,19.08
2022-10-22T09:09:50.486Z,13.85
2022-10-22T09:12:35.472Z,19.15
2022-10-22T09:15:20.792Z,16.77
2022-10-22T09:18:32.526Z,13.77
2022-10-22T09:21:23.581Z,13.68
2022-10-22T09:26:57.449Z,9.52
2022-10-22T09:29:43.745Z,14.30
2022-10-22T09:32:28.554Z,14.30
2022-10-22T09:35:14.488Z,14.60
2022-10-22T09:38:07.483Z,14.00
2022-10-22T09:40:55.067Z,11.07
2022-10-22T09:43:40.109Z,16.80
2022-10-22T09:46:28.815Z,12.13
2022-10-22T09:49:23.322Z,10.73
2022-10-22T09:52:25.440Z,9.63
2022-10-22T09:55:17.985Z,12.45
2022-10-22T09:58:03.005Z,15.80
2022-10-22T10:00:59.491Z,13.98
2022-10-22T10:06:32.015Z,10.93
2022-10-22T10:09:20.987Z,13.45
2022-10-22T10:12:19.944Z,14.90
2022-10-22T10:15:15.686Z,12.27
2022-10-22T10:18:15.577Z,13.75
2022-10-22T10:21:26.292Z,15.65
2022-10-22T10:24:35.590Z,13.70
2022-10-22T10:27:39.179Z,15.35
2022-10-22T10:30:24.396Z,15.70
2022-10-22T10:33:30.750Z,19.35
2022-10-22T10:36:39.209Z,14.88
2022-10-22T10:39:49.431Z,15.60
2022-10-22T10:42:43.934Z,18.42
2022-10-22T10:45:45.075Z,16.77
2022-10-22T10:48:49.520Z,15.02
2022-10-22T10:51:45.739Z,13.73
2022-10-22T10:54:30.591Z,12.18
2022-10-22T10:57:15.522Z,12.57
2022-10-22T11:00:11.241Z,13.23
2022-10-22T11:03:15.249Z,14.65
2022-10-22T11:06:07.205Z,16.90
2022-10-22T11:08:54.368Z,14.50
2022-10-22T11:11:45.033Z,14.50
2022-10-22T11:14:34.805Z,13.02
2022-10-22T11:17:21.618Z,13.77
2022-10-22T11:20:17.924Z,20.67
2022-10-22T11:23:23.120Z,19.77
2022-10-22T11:26:16.950Z,16.13
2022-10-22T11:29:06.728Z,14.63
2022-10-22T11:31:54.167Z,15.90
2022-10-22T11:34:47.708Z,16.85
2022-10-22T11:37:34.788Z,14.57
2022-10-22T11:40:31.536Z,14.05
2022-10-22T11:43:51.968Z,10.88
2022-10-22T11:46:36.756Z,12.93
2022-10-22T11:49:42.831Z,11.60
2022-10-22T11:52:40.408Z,13.38
2022-10-22T11:55:45.276Z,18.73
2022-10-22T11:58:44.347Z,12.38
2022-10-22T12:01:41.444Z,15.50
2022-10-22T12:04:41.522Z,12.60
2022-10-22T12:07:48.961Z,12.48
2022-10-22T12:10:50.275Z,12.82
2022-10-22T12:14:12.524Z,13.38
2022-10-22T12:16:58.797Z,11.18
2022-10-22T12:19:46.187Z,14.07
2022-10-22T12:22:33.124Z,13.20
2022-10-22T12:25:22.650Z,13.43
2022-10-22T12:28:12.076Z,14.75
2022-10-22T12:30:59.260Z,25.20
2022-10-22T12:33:44.052Z,35.17
2022-10-22T12:36:31.639Z,55.88
2022-10-22T12:39:20.929Z,32.83
2022-10-22T12:42:10.294Z,21.98
2022-10-22T12:44:56.079Z,19.85
2022-10-22T12:47:46.107Z,15.68
2022-10-22T12:50:36.982Z,12.65
2022-10-22T12:53:37.080Z,14.50
2022-10-22T12:56:27.097Z,13.25
2022-10-22T12:59:47.189Z,14.75
2022-10-22T13:02:34.743Z,13.20
2022-10-22T13:05:19.554Z,13.65
2022-10-22T13:08:09.842Z,12.93
2022-10-22T13:10:55.162Z,15.32
2022-10-22T13:13:40.059Z,13.13
2022-10-22T13:16:27.256Z,12.23
2022-10-22T13:19:37.310Z,13.80
2022-10-22T13:22:26.983Z,13.82
2022-10-22T13:25:19.560Z,14.45
2022-10-22T13:28:07.674Z,14.90
2022-10-22T13:31:18.157Z,12.88
2022-10-22T13:34:10.892Z,12.38
2022-10-22T13:36:58.637Z,11.50
2022-10-22T13:39:43.877Z,12.20
2022-10-22T13:42:28.647Z,12.88
2022-10-22T13:45:14.181Z,13.32
2022-10-22T13:47:59.215Z,13.45
2022-10-22T13:50:44.852Z,16.80
2022-10-22T13:53:30.497Z,17.83
2022-10-22T13:56:16.821Z,17.80
2022-10-22T13:59:01.575Z,16.90
2022-10-22T14:01:46.605Z,17.05
2022-10-22T14:04:34.894Z,17.55
2022-10-22T14:07:20.218Z,16.08
2022-10-22T14:10:23.598Z,12.68
2022-10-22T14:13:12.580Z,14.55
2022-10-22T14:15:57.142Z,16.05
2022-10-22T14:18:42.218Z,16.08
2022-10-22T14:21:34.806Z,18.45
2022-10-22T14:24:19.852Z,18.20
2022-10-22T14:27:04.832Z,18.95
2022-10-22T14:29:56.052Z,18.75
2022-10-22T14:32:45.524Z,21.67
2022-10-22T14:35:30.430Z,17.70
2022-10-22T14:38:17.220Z,20.48
2022-10-22T14:41:02.082Z,17.25
2022-10-22T14:43:48.185Z,16.38
2022-10-22T14:46:33.288Z,20.05
2022-10-22T14:49:18.027Z,18.20
2022-10-22T14:52:03.311Z,18.00
2022-10-22T14:54:48.345Z,19.48
2022-10-22T14:57:32.924Z,16.45
2022-10-22T15:00:18.915Z,15.20
2022-10-22T15:03:04.435Z,23.70
2022-10-22T15:05:53.080Z,28.90
2022-10-22T15:08:38.845Z,27.30
2022-10-22T15:11:23.499Z,21.77
2022-10-22T15:14:08.707Z,22.88
2022-10-22T15:16:53.400Z,21.35
2022-10-22T15:19:38.382Z,20.38
2022-10-22T15:22:23.306Z,14.55
2022-10-22T15:25:08.767Z,15.07
2022-10-22T15:27:56.561Z,16.20
2022-10-22T15:30:58.098Z,15.70
2022-10-22T15:33:43.710Z,15.13
2022-10-22T15:36:28.636Z,16.83
2022-10-22T15:39:13.767Z,21.67
2022-10-22T15:41:59.526Z,18.40
2022-10-22T15:44:44.380Z,19.83
2022-10-22T15:47:30.611Z,21.80
2022-10-22T15:50:16.143Z,30.90
2022-10-22T15:53:00.828Z,36.60
2022-10-22T15:55:49.042Z,42.15
2022-10-22T15:58:34.117Z,39.85
2022-10-22T16:01:19.128Z,33.42
2022-10-22T16:04:05.212Z,39.03
2022-10-22T16:06:52.653Z,38.75
2022-10-22T16:09:37.681Z,36.50
2022-10-22T16:12:22.566Z,42.97
2022-10-22T16:15:08.381Z,34.42
2022-10-22T16:17:53.074Z,41.20
2022-10-22T16:20:39.799Z,38.67
2022-10-22T16:23:24.669Z,40.40
2022-10-22T16:26:09.792Z,43.53
2022-10-22T16:28:54.717Z,51.53
2022-10-22T16:31:42.194Z,83.55
2022-10-22T16:34:27.644Z,68.60
2022-10-22T16:37:13.013Z,57.72
2022-10-22T16:39:58.028Z,49.88
2022-10-22T16:42:43.929Z,47.50
2022-10-22T16:45:28.932Z,49.13
2022-10-22T16:48:14.768Z,49.60
2022-10-22T16:51:06.143Z,49.38
2022-10-22T16:53:52.648Z,42.42
2022-10-22T16:56:37.818Z,42.53
2022-10-22T16:59:23.226Z,30.58
2022-10-22T17:02:10.608Z,30.35
2022-10-22T17:04:55.923Z,29.08
2022-10-22T17:07:41.077Z,33.03
2022-10-22T17:10:26.539Z,32.22
2022-10-22T17:13:11.615Z,32.00
2022-10-22T17:16:09.968Z,29.95
2022-10-22T17:18:56.076Z,30.50
2022-10-22T17:21:42.085Z,31.23
2022-10-22T17:24:27.093Z,72.05
2022-10-22T17:27:12.884Z,118.68
2022-10-22T17:29:57.986Z,93.43
2022-10-22T17:32:43.719Z,80.07
2022-10-22T17:35:29.215Z,77.15
2022-10-22T17:38:14.213Z,53.53
2022-10-22T17:41:04.120Z,51.00
2022-10-22T17:43:51.310Z,55.28
2022-10-22T17:46:37.245Z,56.33
2022-10-22T17:49:22.546Z,68.43
2022-10-22T17:52:10.729Z,74.38
2022-10-22T17:54:55.540Z,82.93
2022-10-22T17:57:40.499Z,88.10
2022-10-22T18:00:25.271Z,84.20
2022-10-22T18:03:11.428Z,91.57
2022-10-22T18:05:55.965Z,85.35
2022-10-22T18:08:41.125Z,78.25
2022-10-22T18:11:27.410Z,71.82
2022-10-22T18:14:12.049Z,72.38
2022-10-22T18:16:56.940Z,69.55
2022-10-22T18:19:41.897Z,69.85
2022-10-22T18:22:26.833Z,56.40
2022-10-22T18:25:11.800Z,56.25
2022-10-22T18:27:56.685Z,60.28
2022-10-22T18:30:42.524Z,44.97
2022-10-22T18:33:27.268Z,53.50
2022-10-22T18:36:15.621Z,40.83
2022-10-22T18:39:01.953Z,37.70
2022-10-22T18:41:47.018Z,37.40
2022-10-22T18:44:33.963Z,39.20
2022-10-22T18:47:18.594Z,45.97
2022-10-22T18:50:04.396Z,58.30
2022-10-22T18:52:49.745Z,85.88
2022-10-22T18:55:37.244Z,106.72
2022-10-22T18:58:22.217Z,112.85
2022-10-22T19:01:12.530Z,99.22
2022-10-22T19:03:57.629Z,81.22
2022-10-22T19:06:45.236Z,48.92
2022-10-22T19:09:30.890Z,38.47
2022-10-22T19:12:15.549Z,32.38
2022-10-22T19:15:01.049Z,30.73
2022-10-22T19:17:45.953Z,30.27
2022-10-22T19:20:31.093Z,25.73
2022-10-22T19:23:19.950Z,25.40
2022-10-22T19:26:09.498Z,25.98
2022-10-22T19:28:55.655Z,24.92
2022-10-22T19:31:41.534Z,28.80
2022-10-22T19:34:26.562Z,31.38
2022-10-22T19:37:12.045Z,24.25
2022-10-22T19:39:56.769Z,29.40
2022-10-22T19:42:43.706Z,29.42
2022-10-22T19:45:28.723Z,24.67
2022-10-22T19:48:13.723Z,27.75
2022-10-22T19:51:05.277Z,31.52
2022-10-22T19:53:56.068Z,27.35
2022-10-22T19:56:40.942Z,28.02
2022-10-22T19:59:28.650Z,31.50
2022-10-22T20:02:17.680Z,29.63
2022-10-22T20:05:03.072Z,29.40
2022-10-22T20:07:48.217Z,34.00
2022-10-22T20:10:33.119Z,29.10
2022-10-22T20:13:18.124Z,33.83
2022-10-22T20:16:03.642Z,32.90
2022-10-22T20:18:49.143Z,35.55
2022-10-22T20:21:34.406Z,36.78
2022-10-22T20:24:19.192Z,35.83
2022-10-22T20:27:04.032Z,31.40
2022-10-22T20:29:48.882Z,41.80
2022-10-22T20:32:37.076Z,38.67
2022-10-22T20:35:21.943Z,40.22
2022-10-22T20:38:08.162Z,39.40
2022-10-22T20:41:06.999Z,41.70
2022-10-22T20:43:52.290Z,41.88
2022-10-22T20:46:37.088Z,47.25
2022-10-22T20:49:21.931Z,46.47
2022-10-22T20:52:07.729Z,46.22
2022-10-22T20:54:52.335Z,44.15
2022-10-22T20:57:37.250Z,44.42
2022-10-22T21:00:22.417Z,43.45
2022-10-22T21:03:07.295Z,43.42
2022-10-22T21:05:52.457Z,48.70
2022-10-22T21:08:37.709Z,45.72
2022-10-22T21:11:22.878Z,44.88
2022-10-22T21:14:10.347Z,52.20
2022-10-22T21:16:55.698Z,50.95
2022-10-22T21:19:40.674Z,50.90
2022-10-22T21:22:25.435Z,48.67
2022-10-22T21:25:10.638Z,50.13
2022-10-22T21:27:55.505Z,50.92
2022-10-22T21:30:47.017Z,48.58
2022-10-22T21:33:36.015Z,48.67
2022-10-22T21:36:23.215Z,45.53
2022-10-22T21:39:08.247Z,51.78
2022-10-22T21:41:53.326Z,50.20
2022-10-22T21:44:38.305Z,50.42
2022-10-22T21:47:24.071Z,49.22
2022-10-22T21:50:09.197Z,55.40
2022-10-22T21:52:54.819Z,52.45
2022-10-22T21:55:41.103Z,52.10
2022-10-22T21:58:26.163Z,53.70
2022-10-22T22:01:12.114Z,51.78
2022-10-22T22:03:57.036Z,56.70
2022-10-22T22:06:41.807Z,52.85
2022-10-22T22:09:26.882Z,56.88
2022-10-22T22:12:11.694Z,60.38
2022-10-22T22:14:56.809Z,53.42
2022-10-22T22:17:41.618Z,55.25
2022-10-22T22:20:27.011Z,57.45
2022-10-22T22:23:12.134Z,59.47
2022-10-22T22:26:01.542Z,55.90
2022-10-22T22:28:47.039Z,61.13
2022-10-22T22:31:33.780Z,59.88
2022-10-22T22:34:18.533Z,60.38
2022-10-22T22:37:03.758Z,62.63
2022-10-22T22:39:48.729Z,66.32
2022-10-22T22:42:33.667Z,60.38
2022-10-22T22:45:18.695Z,64.57
2022-10-22T22:48:03.698Z,63.40
2022-10-22T22:50:48.621Z,62.50
2022-10-22T22:53:34.996Z,66.20
2022-10-22T22:56:22.897Z,61.65
2022-10-22T22:59:07.371Z,68.05
2022-10-22T23:01:52.355Z,68.75
2022-10-22T23:04:37.394Z,68.22
2022-10-22T23:07:22.417Z,64.35
2022-10-22T23:10:07.802Z,69.15
2022-10-22T23:12:52.283Z,64.65
2022-10-22T23:15:39.660Z,76.28
2022-10-22T23:18:24.864Z,69.53
2022-10-22T23:21:16.369Z,72.32
2022-10-22T23:24:04.246Z,68.80
2022-10-22T23:26:51.654Z,71.72
2022-10-22T23:29:36.352Z,73.95
2022-10-22T23:32:21.385Z,72.68
2022-10-22T23:35:06.800Z,71.68
2022-10-22T23:37:51.545Z,68.30
2022-10-22T23:40:36.949Z,72.95
2022-10-22T23:43:25.910Z,68.65
2022-10-22T23:46:12.094Z,77.95
2022-10-22T23:48:56.965Z,72.90
2022-10-22T23:51:42.217Z,71.05
2022-10-22T23:54:27.060Z,73.55
2022-10-22T23:57:11.923Z,71.53
2022-10-22T23:59:56.837Z,74.63
